Amsterdam, Netherlands

3:18 AM CEST on October 01, 2014 (GMT +0200)
Schiphol | Change Station
CLOSE
Current Station
Personal Weather Station
Location: Badhoevedorp, NOORD HOLLAND
Elevation: -10 ft
Nearby Weather Stations

Elev -10 ft 52.33 °N, 4.78 °E | Updated 11 minutes ago

Mostly Cloudy
Mostly Cloudy
55.7 °F
Feels Like 55.7 °F
N
0.0
Wind Variable Wind from WNW
Gusts 1.0 mph

Today
High -- | Low -- °F
--% Chance of Precip.
Yesterday
High -- | Low -- °F
Precip. -- in
7:41 AM 7:18 PM
Waxing Crescent, 42% visible
Pressure 30.24 in
Visibility 1.2 miles
Clouds Scattered Clouds 1300 ft
Mostly Cloudy 1500 ft
Dew Point 54 °F
Humidity 94%
Rainfall 0.00 in
Snow Depth Not available.
UV 0.0 out of 12
Pollen Not available.
Air Quality Not available.
Flu Activity Not available.
SPECI EHKD 010107Z AUTO 18005KT 1900 R21/1500 BR SCT013 BKN015 13/13 Q1024 YLO

More Conditions Fewer Conditions

Pressure 30.24 in
Visibility 1.2 miles
Clouds Scattered Clouds 1300 ft
Mostly Cloudy 1500 ft
Dew Point 54 °F
Humidity 94%
Rainfall 0.00 in
Snow Depth Not available.
UV 0.0 out of 12
Pollen Not available.
Air Quality Not available.
Flu Activity Not available.
SPECI EHKD 010107Z AUTO 18005KT 1900 R21/1500 BR SCT013 BKN015 13/13 Q1024 YLO

More Conditions Fewer Conditions

10-Day Weather Forecast

Almanac

Astronomy

Oct. 01, 2014 Rise Set
Actual Time 7:41 AM CEST 7:18 PM CEST
Civil Twilight 7:07 AM CEST 7:52 PM CEST
Nautical Twilight 6:28 AM CEST 8:31 PM CEST
Astronomical Twilight 5:47 AM CEST 9:12 PM CEST
Moon 3:02 PM CEST No Moon Set
Length of Visible Light 12h 44m
Length of Day
11h 37m
Tomorrow will be 4m 2s shorter.
Waxing Crescent, 42% of the Moon is Illuminated
Sep 30
Waxing Crescent
Oct 1
First Quarter
Oct 8
Full
Oct 15
Last Quarter
Oct 23
New

Yesterday's Extremes

Country Highs Country Lows

Community

WunderPhotos

Upload Photos

1,757,815 photos uploaded!

Nearby

Snow Depth

Not available.

Earthquake Activity

City Distance Mag. Time & Date
No recent earthquake activity has been reported nearby.
Minimum magnitude displayed is 2.5.

Coastal Water Temperatures

Place Temperature
No Stations Reporting

Nearby Weather Stations